Time;durP1;ratioP1;P1;durP2;ratioP2;P2;SDS_P1;SDS_P2;PMS_P1;PMS_P2;Temp;Humidity;BMP_temperature;BMP_pressure;BME280_temperature;BME280_humidity;BME280_pressure;Samples;Min_cycle;Max_cycle;Signal;HPM_P1;HPM_P2
2022/06/05 00:02:37;;;;;;;40.67;8.55;;;;;;;;;;5030195;28;20447;-54
2022/06/05 00:05:27;;;;;;;38.90;8.95;;;;;;;;;;5031136;28;20113;-52
2022/06/05 00:08:06;;;;;;;41.00;8.02;;;;;;;;;;5011605;28;20404;-54
2022/06/05 00:10:43;;;;;;;38.28;8.38;;;;;;;;;;5030365;28;20071;-52
2022/06/05 00:13:30;;;;;;;33.03;8.13;;;;;;;;;;5018842;28;20037;-51
2022/06/05 00:15:58;;;;;;;40.17;8.10;;;;;;;;;;5010267;28;20030;-53
2022/06/05 00:18:25;;;;;;;32.72;7.68;;;;;;;;;;5009913;28;20022;-54
2022/06/05 00:20:53;;;;;;;40.95;8.40;;;;;;;;;;5011085;28;20041;-54
2022/06/05 00:23:20;;;;;;;47.95;8.45;;;;;;;;;;5010933;28;20088;-55
2022/06/05 00:25:52;;;;;;;34.53;7.95;;;;;;;;;;5010345;28;20030;-54
2022/06/05 00:28:19;;;;;;;46.22;8.55;;;;;;;;;;5011160;28;20038;-56
2022/06/05 00:31:01;;;;;;;38.05;7.72;;;;;;;;;;5010511;28;20157;-55
2022/06/05 00:33:34;;;;;;;40.17;7.35;;;;;;;;;;5009205;28;20602;-53
2022/06/05 00:36:05;;;;;;;37.20;8.02;;;;;;;;;;5010409;28;20052;-56
2022/06/05 00:38:42;;;;;;;39.00;8.10;;;;;;;;;;5008765;28;20030;-58
2022/06/05 00:41:30;;;;;;;45.70;8.05;;;;;;;;;;5010057;28;20018;-51
2022/06/05 00:43:59;;;;;;;30.17;7.35;;;;;;;;;;5010419;28;20619;-58
2022/06/05 00:46:27;;;;;;;30.20;7.32;;;;;;;;;;5010469;28;20475;-57
2022/06/05 00:48:54;;;;;;;36.45;8.40;;;;;;;;;;5009591;28;20472;-55
2022/06/05 00:51:21;;;;;;;33.55;8.23;;;;;;;;;;5010421;28;20492;-55
2022/06/05 00:53:50;;;;;;;31.13;7.78;;;;;;;;;;5011159;28;20064;-57
2022/06/05 00:56:17;;;;;;;26.30;7.03;;;;;;;;;;5008638;28;20038;-55
2022/06/05 00:58:44;;;;;;;30.05;7.22;;;;;;;;;;5009113;28;20025;-53
2022/06/05 01:01:11;;;;;;;26.23;7.95;;;;;;;;;;5007696;28;20022;-51
2022/06/05 01:03:38;;;;;;;36.42;8.65;;;;;;;;;;5009079;28;20033;-54
2022/06/05 01:06:05;;;;;;;30.98;7.88;;;;;;;;;;5011013;28;20026;-55
2022/06/05 01:08:32;;;;;;;39.75;7.72;;;;;;;;;;5012014;28;20567;-54
2022/06/05 01:11:26;;;;;;;39.35;8.00;;;;;;;;;;5012700;28;20104;-55
2022/06/05 01:17:12;;;;;;;26.75;7.85;;;;;;;;;;5013002;28;20092;-54
2022/06/05 01:22:58;;;;;;;42.90;8.80;;;;;;;;;;5012893;28;20111;-52
2022/06/05 01:28:45;;;;;;;33.92;7.93;;;;;;;;;;5012818;28;20037;-56
2022/06/05 01:31:16;;;;;;;35.33;9.50;;;;;;;;;;5014077;28;20046;-55
2022/06/05 01:33:48;;;;;;;32.42;8.38;;;;;;;;;;5013788;28;20361;-52
2022/06/05 01:36:19;;;;;;;43.78;8.40;;;;;;;;;;5014071;28;20022;-55
2022/06/05 01:38:46;;;;;;;39.50;8.70;;;;;;;;;;5013837;28;20030;-52
2022/06/05 01:41:19;;;;;;;53.78;8.57;;;;;;;;;;5013696;28;20462;-51
2022/06/05 01:43:49;;;;;;;54.15;9.50;;;;;;;;;;5013371;28;20119;-54
2022/06/05 01:46:20;;;;;;;50.55;8.57;;;;;;;;;;5014053;28;20480;-56
2022/06/05 01:49:09;;;;;;;45.92;8.13;;;;;;;;;;5012988;28;20492;-56
2022/06/05 01:51:42;;;;;;;50.65;8.95;;;;;;;;;;5013399;28;20545;-57
2022/06/05 01:54:11;;;;;;;34.30;8.35;;;;;;;;;;5013461;28;20113;-54
2022/06/05 01:56:41;;;;;;;43.30;9.02;;;;;;;;;;5014174;28;20185;-53
2022/06/05 01:59:14;;;;;;;57.70;9.30;;;;;;;;;;5013522;28;20550;-54
2022/06/05 02:01:43;;;;;;;49.97;7.93;;;;;;;;;;5012945;28;20058;-51
2022/06/05 02:04:16;;;;;;;49.90;8.02;;;;;;;;;;5013818;28;20030;-55
2022/06/05 02:06:46;;;;;;;61.42;9.50;;;;;;;;;;5012808;28;20041;-52
2022/06/05 02:09:19;;;;;;;44.95;7.68;;;;;;;;;;5011478;28;20415;-56
2022/06/05 02:11:47;;;;;;;44.80;8.70;;;;;;;;;;5013255;28;20121;-49
2022/06/05 02:14:14;;;;;;;47.40;7.82;;;;;;;;;;5011362;28;20030;-52
2022/06/05 02:16:42;;;;;;;34.88;7.40;;;;;;;;;;5010950;28;20447;-53
2022/06/05 02:19:21;;;;;;;42.15;7.72;;;;;;;;;;5013065;28;20410;-50
2022/06/05 02:21:49;;;;;;;27.45;6.50;;;;;;;;;;5012361;28;20065;-57
2022/06/05 02:24:16;;;;;;;43.60;8.77;;;;;;;;;;5012406;28;20037;-49
2022/06/05 02:26:43;;;;;;;35.95;7.30;;;;;;;;;;5013143;28;20042;-53
2022/06/05 02:29:15;;;;;;;34.08;6.88;;;;;;;;;;5012711;28;20038;-56
2022/06/05 02:31:42;;;;;;;39.72;8.50;;;;;;;;;;5012212;28;20068;-53
2022/06/05 02:34:31;;;;;;;31.27;7.68;;;;;;;;;;5012126;28;20026;-59
2022/06/05 02:37:07;;;;;;;31.98;6.88;;;;;;;;;;5013401;28;20048;-53
2022/06/05 02:39:37;;;;;;;29.55;6.63;;;;;;;;;;5012252;28;20076;-54
2022/06/05 02:42:11;;;;;;;21.20;6.20;;;;;;;;;;5011596;28;20025;-54
2022/06/05 02:44:52;;;;;;;20.75;6.03;;;;;;;;;;5013071;28;20547;-53
2022/06/05 02:47:22;;;;;;;26.77;5.90;;;;;;;;;;5012018;28;20111;-55
2022/06/05 02:50:15;;;;;;;21.42;5.15;;;;;;;;;;5012006;28;20116;-54
2022/06/05 02:52:42;;;;;;;25.77;4.78;;;;;;;;;;4992515;28;20085;-55
2022/06/05 02:55:14;;;;;;;19.55;5.55;;;;;;;;;;4993914;28;20445;-52
2022/06/05 02:57:42;;;;;;;18.88;5.03;;;;;;;;;;4993265;28;20026;-52
2022/06/05 03:00:12;;;;;;;19.60;5.03;;;;;;;;;;4992977;28;20014;-54
2022/06/05 03:05:24;;;;;;;17.40;4.50;;;;;;;;;;4993605;28;20050;-53
2022/06/05 03:07:51;;;;;;;16.67;5.07;;;;;;;;;;4992707;28;20030;-53
2022/06/05 03:10:18;;;;;;;18.92;4.80;;;;;;;;;;4993754;28;20038;-52
2022/06/05 03:12:45;;;;;;;17.83;4.95;;;;;;;;;;4996822;28;20042;-52
2022/06/05 03:15:13;;;;;;;15.45;4.63;;;;;;;;;;5012182;28;20030;-53
2022/06/05 03:17:40;;;;;;;17.63;4.90;;;;;;;;;;5012752;28;20041;-54
2022/06/05 03:20:07;;;;;;;16.45;4.60;;;;;;;;;;5012648;28;20029;-56
2022/06/05 03:22:34;;;;;;;11.93;3.95;;;;;;;;;;5012144;28;20025;-55
2022/06/05 03:25:01;;;;;;;17.20;5.03;;;;;;;;;;5012438;28;20026;-51
2022/06/05 03:27:30;;;;;;;14.77;4.45;;;;;;;;;;5012652;28;20076;-53
2022/06/05 03:29:57;;;;;;;13.85;4.88;;;;;;;;;;5012458;28;20092;-53
2022/06/05 03:32:25;;;;;;;13.02;3.97;;;;;;;;;;5009578;28;20041;-54
2022/06/05 03:34:52;;;;;;;13.57;4.32;;;;;;;;;;5009865;28;20026;-59
2022/06/05 03:37:20;;;;;;;16.92;4.25;;;;;;;;;;5010509;28;20037;-54
2022/06/05 03:39:47;;;;;;;11.48;4.07;;;;;;;;;;5009544;28;20080;-54
2022/06/05 03:42:14;;;;;;;11.98;3.80;;;;;;;;;;5010225;28;20030;-51
2022/06/05 03:44:42;;;;;;;15.18;4.60;;;;;;;;;;5009687;28;20030;-53
2022/06/05 03:47:10;;;;;;;12.95;4.07;;;;;;;;;;5008747;28;20488;-53
2022/06/05 03:49:37;;;;;;;14.10;4.07;;;;;;;;;;5011245;28;20391;-54
2022/06/05 03:52:04;;;;;;;15.27;4.63;;;;;;;;;;5011155;28;20053;-55
2022/06/05 03:54:33;;;;;;;14.05;3.90;;;;;;;;;;5011333;28;20096;-53
2022/06/05 03:57:00;;;;;;;12.25;3.97;;;;;;;;;;5010471;28;20053;-53
2022/06/05 03:59:27;;;;;;;16.50;4.00;;;;;;;;;;5011927;28;20037;-50
2022/06/05 04:01:55;;;;;;;12.00;3.60;;;;;;;;;;5011457;28;20037;-51
2022/06/05 04:04:23;;;;;;;10.07;3.55;;;;;;;;;;5010944;28;20762;-56
2022/06/05 04:06:50;;;;;;;9.60;3.80;;;;;;;;;;5011931;28;20084;-52
2022/06/05 04:09:16;;;;;;;11.57;4.03;;;;;;;;;;5011583;28;20487;-52
2022/06/05 04:11:43;;;;;;;12.55;3.70;;;;;;;;;;5011214;28;20042;-53
2022/06/05 04:14:11;;;;;;;12.00;3.97;;;;;;;;;;5011782;28;20022;-53
2022/06/05 04:16:40;;;;;;;10.10;3.55;;;;;;;;;;5010756;28;20022;-53
2022/06/05 04:19:07;;;;;;;10.20;3.67;;;;;;;;;;5011402;28;20033;-51
2022/06/05 04:21:34;;;;;;;10.50;4.05;;;;;;;;;;5011376;28;20500;-51
2022/06/05 04:24:01;;;;;;;7.55;2.58;;;;;;;;;;5010719;28;20041;-53
2022/06/05 04:26:30;;;;;;;11.65;3.42;;;;;;;;;;5011854;28;20022;-56
2022/06/05 04:28:57;;;;;;;10.25;3.38;;;;;;;;;;5010997;28;20037;-53
2022/06/05 04:31:28;;;;;;;7.82;3.22;;;;;;;;;;4934105;28;2237828;-57
2022/06/05 04:33:57;;;;;;;9.52;3.58;;;;;;;;;;5012020;28;20021;-54
2022/06/05 04:36:24;;;;;;;8.98;3.10;;;;;;;;;;5011602;28;20113;-51
2022/06/05 04:38:51;;;;;;;10.50;3.20;;;;;;;;;;5012271;28;20022;-55
2022/06/05 04:41:18;;;;;;;15.02;3.30;;;;;;;;;;5012062;28;20029;-56
2022/06/05 04:43:46;;;;;;;8.82;2.95;;;;;;;;;;5011708;28;20030;-49
2022/06/05 04:46:13;;;;;;;10.77;3.83;;;;;;;;;;5011327;28;20041;-52
2022/06/05 04:48:40;;;;;;;9.63;2.78;;;;;;;;;;5012384;28;20027;-57
2022/06/05 04:51:09;;;;;;;7.80;3.20;;;;;;;;;;5011924;28;20038;-55
2022/06/05 04:53:36;;;;;;;8.63;3.17;;;;;;;;;;5011920;28;20026;-52
2022/06/05 04:56:07;;;;;;;8.10;2.60;;;;;;;;;;5011159;28;20030;-54
2022/06/05 04:58:34;;;;;;;8.98;3.20;;;;;;;;;;5012175;28;20101;-51
2022/06/05 05:01:01;;;;;;;8.65;3.08;;;;;;;;;;5011440;28;20061;-56
2022/06/05 05:03:28;;;;;;;6.95;2.70;;;;;;;;;;5011819;28;20061;-52
2022/06/05 05:05:55;;;;;;;7.43;3.10;;;;;;;;;;5015630;28;20380;-52
2022/06/05 05:08:22;;;;;;;8.23;3.20;;;;;;;;;;5014897;28;20025;-54
2022/06/05 05:10:49;;;;;;;7.90;2.97;;;;;;;;;;5015845;28;20108;-54
2022/06/05 05:13:16;;;;;;;5.93;2.80;;;;;;;;;;5015364;28;20041;-56
2022/06/05 05:15:43;;;;;;;5.95;2.63;;;;;;;;;;5014835;28;20026;-51
2022/06/05 05:18:10;;;;;;;7.90;2.80;;;;;;;;;;5015534;28;20053;-54
2022/06/05 05:20:37;;;;;;;6.68;2.60;;;;;;;;;;5014564;28;20077;-52
2022/06/05 05:23:04;;;;;;;9.63;2.75;;;;;;;;;;5015714;28;20484;-51
2022/06/05 05:25:31;;;;;;;6.30;2.72;;;;;;;;;;5015002;28;20388;-55
2022/06/05 05:27:58;;;;;;;8.85;2.50;;;;;;;;;;5015000;28;20030;-55
2022/06/05 05:30:24;;;;;;;8.85;2.92;;;;;;;;;;5015333;28;20571;-52
2022/06/05 05:32:52;;;;;;;5.45;2.40;;;;;;;;;;5014889;28;20038;-54
2022/06/05 05:35:20;;;;;;;7.88;2.90;;;;;;;;;;5014460;28;20036;-52
2022/06/05 05:37:47;;;;;;;5.45;2.92;;;;;;;;;;5015388;28;20053;-53
2022/06/05 05:42:59;;;;;;;6.38;2.45;;;;;;;;;;5015062;28;20065;-53
2022/06/05 05:45:26;;;;;;;5.93;2.30;;;;;;;;;;5015324;28;20590;-55
2022/06/05 05:47:53;;;;;;;4.53;2.35;;;;;;;;;;5014575;28;20033;-53
2022/06/05 05:50:21;;;;;;;6.10;2.50;;;;;;;;;;5014895;28;20080;-53
2022/06/05 05:52:48;;;;;;;6.25;3.08;;;;;;;;;;5014735;28;20045;-53
2022/06/05 05:55:16;;;;;;;5.63;2.60;;;;;;;;;;5014568;28;20045;-54
2022/06/05 05:57:43;;;;;;;6.75;2.70;;;;;;;;;;5014242;28;20022;-54
2022/06/05 06:00:12;;;;;;;6.93;2.63;;;;;;;;;;5014612;28;20053;-53
2022/06/05 06:02:40;;;;;;;6.45;2.40;;;;;;;;;;5014440;28;20796;-54
2022/06/05 06:05:08;;;;;;;7.75;2.90;;;;;;;;;;5014669;28;20026;-55
2022/06/05 06:07:35;;;;;;;9.10;2.70;;;;;;;;;;5014422;28;20103;-56
2022/06/05 06:10:02;;;;;;;7.00;2.60;;;;;;;;;;5014075;28;20028;-52
2022/06/05 06:12:29;;;;;;;7.25;2.58;;;;;;;;;;5013995;28;20042;-50
2022/06/05 06:14:56;;;;;;;7.05;2.50;;;;;;;;;;5013997;28;20041;-51
2022/06/05 06:17:23;;;;;;;5.00;2.35;;;;;;;;;;5013514;28;20026;-54
2022/06/05 06:19:50;;;;;;;7.22;2.58;;;;;;;;;;5014463;28;20029;-54
2022/06/05 06:22:17;;;;;;;5.65;2.30;;;;;;;;;;5013704;28;20053;-53
2022/06/05 06:24:44;;;;;;;7.18;2.55;;;;;;;;;;5013995;28;20535;-55
2022/06/05 06:27:11;;;;;;;7.85;2.60;;;;;;;;;;5013710;28;20026;-55
2022/06/05 06:29:38;;;;;;;4.93;2.65;;;;;;;;;;5014411;28;20567;-51
2022/06/05 06:32:06;;;;;;;5.97;2.67;;;;;;;;;;5013785;28;20072;-53
2022/06/05 06:34:33;;;;;;;6.53;2.60;;;;;;;;;;5013626;28;20022;-54
2022/06/05 06:37:00;;;;;;;5.57;2.40;;;;;;;;;;5013848;28;20562;-55
2022/06/05 06:39:28;;;;;;;11.48;2.53;;;;;;;;;;5014271;28;20387;-52
2022/06/05 06:41:56;;;;;;;6.47;2.60;;;;;;;;;;5013328;28;20036;-54
2022/06/05 06:44:23;;;;;;;4.95;2.40;;;;;;;;;;5012821;28;20040;-49
2022/06/05 06:46:49;;;;;;;5.70;2.72;;;;;;;;;;5013243;28;20031;-55
2022/06/05 06:49:16;;;;;;;6.63;2.75;;;;;;;;;;5012579;28;20484;-54
2022/06/05 06:51:44;;;;;;;3.78;2.08;;;;;;;;;;5013725;28;20484;-54
2022/06/05 06:54:12;;;;;;;5.78;2.55;;;;;;;;;;5013331;28;20384;-55
2022/06/05 06:56:39;;;;;;;5.22;2.60;;;;;;;;;;5013904;28;20042;-50
2022/06/05 06:59:06;;;;;;;4.65;2.10;;;;;;;;;;5013130;28;20514;-52
2022/06/05 07:01:33;;;;;;;4.40;2.38;;;;;;;;;;5013338;28;20404;-56
2022/06/05 07:04:00;;;;;;;3.72;2.22;;;;;;;;;;5013134;28;20026;-52
2022/06/05 07:06:27;;;;;;;6.15;2.53;;;;;;;;;;5013021;28;20024;-50
2022/06/05 07:08:54;;;;;;;4.78;2.47;;;;;;;;;;5013406;28;20029;-54
2022/06/05 07:11:22;;;;;;;4.95;2.28;;;;;;;;;;5012998;28;20487;-51
2022/06/05 07:13:49;;;;;;;5.55;2.70;;;;;;;;;;5013137;28;20107;-51
2022/06/05 07:16:17;;;;;;;3.28;2.20;;;;;;;;;;5013357;28;20026;-54
2022/06/05 07:18:44;;;;;;;4.80;2.13;;;;;;;;;;5012458;28;20046;-53
2022/06/05 07:21:15;;;;;;;5.57;2.40;;;;;;;;;;5013021;28;20049;-54
2022/06/05 07:23:43;;;;;;;5.60;2.40;;;;;;;;;;5013105;28;20037;-52
2022/06/05 07:26:11;;;;;;;7.30;2.65;;;;;;;;;;5013247;28;20066;-52
2022/06/05 07:28:38;;;;;;;4.43;2.25;;;;;;;;;;5010550;28;20398;-54
2022/06/05 07:31:05;;;;;;;5.68;2.03;;;;;;;;;;5012755;28;20045;-52
2022/06/05 07:33:33;;;;;;;4.47;2.20;;;;;;;;;;5012450;28;20034;-52
2022/06/05 07:36:03;;;;;;;5.55;2.25;;;;;;;;;;5011371;28;20038;-53
2022/06/05 07:38:30;;;;;;;5.13;1.98;;;;;;;;;;5012550;28;20112;-52
2022/06/05 07:40:58;;;;;;;4.50;2.08;;;;;;;;;;5012654;28;20022;-54
2022/06/05 07:43:25;;;;;;;5.03;2.00;;;;;;;;;;5012115;28;20092;-53
2022/06/05 07:45:52;;;;;;;4.07;2.00;;;;;;;;;;5013085;28;20033;-52
2022/06/05 07:48:19;;;;;;;5.35;1.98;;;;;;;;;;5012284;28;20097;-55
2022/06/05 07:56:20;;;;;;;7.28;2.50;;;;;;;;;;5011949;28;20048;-52
2022/06/05 07:58:47;;;;;;;5.38;2.17;;;;;;;;;;5012540;28;20026;-53
2022/06/05 08:01:14;;;;;;;4.72;1.88;;;;;;;;;;5012585;28;20105;-52
2022/06/05 08:03:41;;;;;;;4.35;2.10;;;;;;;;;;5012091;28;20026;-54
2022/06/05 08:06:09;;;;;;;4.50;1.73;;;;;;;;;;5012156;28;20025;-52
2022/06/05 08:08:36;;;;;;;6.88;1.90;;;;;;;;;;5011920;28;20037;-53
2022/06/05 08:11:04;;;;;;;5.55;2.17;;;;;;;;;;5012027;28;20033;-54
2022/06/05 08:13:31;;;;;;;4.30;2.00;;;;;;;;;;5011733;28;20083;-55
2022/06/05 08:15:58;;;;;;;5.50;2.22;;;;;;;;;;5012589;28;20022;-50
2022/06/05 08:18:25;;;;;;;3.75;2.03;;;;;;;;;;5011689;28;20030;-50
2022/06/05 08:20:52;;;;;;;3.78;2.08;;;;;;;;;;5012276;28;20057;-56
2022/06/05 08:23:19;;;;;;;4.40;2.10;;;;;;;;;;5011827;28;20034;-53
2022/06/05 08:25:46;;;;;;;3.90;2.00;;;;;;;;;;5012526;28;20127;-52
2022/06/05 08:28:13;;;;;;;5.05;1.80;;;;;;;;;;5011767;28;20025;-53
2022/06/05 08:30:40;;;;;;;3.22;1.60;;;;;;;;;;5011756;28;20435;-55
2022/06/05 08:33:07;;;;;;;4.50;2.08;;;;;;;;;;5012091;28;20030;-51
2022/06/05 08:35:34;;;;;;;3.05;1.83;;;;;;;;;;5011954;28;20037;-54
2022/06/05 08:43:45;;;;;;;4.75;2.08;;;;;;;;;;5015676;28;20113;-56
2022/06/05 08:46:17;;;;;;;4.45;1.98;;;;;;;;;;5016271;28;20030;-52
2022/06/05 08:48:50;;;;;;;3.95;1.85;;;;;;;;;;5015333;28;20064;-53
2022/06/05 08:51:22;;;;;;;5.03;1.80;;;;;;;;;;5016181;28;20044;-51
2022/06/05 08:53:55;;;;;;;4.55;1.98;;;;;;;;;;5016208;28;20033;-54
2022/06/05 08:56:29;;;;;;;5.57;2.30;;;;;;;;;;5015715;28;20037;-54
2022/06/05 08:58:59;;;;;;;3.60;1.70;;;;;;;;;;5015109;28;20034;-53
2022/06/05 09:01:35;;;;;;;5.22;2.00;;;;;;;;;;5015439;28;20514;-52
2022/06/05 09:04:19;;;;;;;3.30;1.65;;;;;;;;;;5015739;28;20030;-55
2022/06/05 09:06:49;;;;;;;4.03;1.70;;;;;;;;;;5015929;28;20030;-55
2022/06/05 09:09:24;;;;;;;2.88;1.70;;;;;;;;;;5015166;28;20096;-55
2022/06/05 09:11:51;;;;;;;5.60;1.70;;;;;;;;;;5015730;28;20030;-51
2022/06/05 09:14:29;;;;;;;4.03;1.90;;;;;;;;;;5014909;28;20038;-53
2022/06/05 09:16:58;;;;;;;3.00;1.52;;;;;;;;;;5014295;28;20053;-53
2022/06/05 09:19:27;;;;;;;3.88;1.70;;;;;;;;;;5015538;28;20400;-51
2022/06/05 09:22:06;;;;;;;3.35;1.77;;;;;;;;;;5014827;28;20032;-53
2022/06/05 09:24:39;;;;;;;4.97;1.80;;;;;;;;;;5015092;28;20067;-55
2022/06/05 09:27:18;;;;;;;3.28;1.63;;;;;;;;;;5014528;28;20057;-55
2022/06/05 09:29:45;;;;;;;3.10;1.42;;;;;;;;;;5015106;28;20030;-53
2022/06/05 09:32:30;;;;;;;5.10;1.50;;;;;;;;;;5014781;28;20038;-53
2022/06/05 09:35:00;;;;;;;3.67;1.67;;;;;;;;;;5014881;28;20029;-54
2022/06/05 09:37:26;;;;;;;4.03;1.40;;;;;;;;;;5014265;28;20091;-55
2022/06/05 09:39:56;;;;;;;4.43;1.70;;;;;;;;;;5015089;28;20018;-52
2022/06/05 09:42:49;;;;;;;3.28;1.55;;;;;;;;;;5014262;28;20099;-54
2022/06/05 09:45:32;;;;;;;4.30;1.80;;;;;;;;;;4998818;28;20046;-51
2022/06/05 09:48:14;;;;;;;2.50;1.50;;;;;;;;;;5014834;28;20058;-51
2022/06/05 09:50:41;;;;;;;5.05;1.65;;;;;;;;;;5013993;28;20124;-54
2022/06/05 09:53:28;;;;;;;2.53;1.40;;;;;;;;;;5014659;28;20380;-53
2022/06/05 09:56:00;;;;;;;4.85;1.58;;;;;;;;;;5014181;28;20065;-52
2022/06/05 09:58:27;;;;;;;5.80;1.40;;;;;;;;;;5014930;28;20025;-51
2022/06/05 10:00:56;;;;;;;3.08;1.40;;;;;;;;;;5014450;28;20100;-52
2022/06/05 10:03:29;;;;;;;3.65;1.58;;;;;;;;;;5014193;28;20026;-49
2022/06/05 10:06:14;;;;;;;4.05;1.38;;;;;;;;;;5014293;28;20030;-51
2022/06/05 10:08:43;;;;;;;3.28;1.75;;;;;;;;;;5014286;28;20041;-49
2022/06/05 10:11:22;;;;;;;2.50;1.50;;;;;;;;;;5014102;28;20108;-56
2022/06/05 10:14:02;;;;;;;2.92;1.63;;;;;;;;;;5013737;28;20030;-49
2022/06/05 10:16:49;;;;;;;4.30;1.77;;;;;;;;;;5014042;28;20029;-55
2022/06/05 10:19:16;;;;;;;1.65;1.33;;;;;;;;;;4993751;28;20121;-50
2022/06/05 10:21:50;;;;;;;2.33;1.10;;;;;;;;;;5013896;28;20076;-52
2022/06/05 10:24:37;;;;;;;3.60;1.58;;;;;;;;;;5013390;28;20084;-53
2022/06/05 10:27:05;;;;;;;3.75;1.58;;;;;;;;;;5013373;28;20022;-54
2022/06/05 10:29:45;;;;;;;3.58;1.48;;;;;;;;;;5014183;28;20026;-52
2022/06/05 10:32:19;;;;;;;4.25;1.40;;;;;;;;;;5013550;28;20048;-53
2022/06/05 10:35:04;;;;;;;3.00;1.45;;;;;;;;;;5013540;28;20166;-53
2022/06/05 10:37:38;;;;;;;3.90;1.20;;;;;;;;;;5013649;28;20496;-51
2022/06/05 10:40:18;;;;;;;3.75;1.50;;;;;;;;;;5013824;28;20088;-51
2022/06/05 10:42:48;;;;;;;6.18;2.15;;;;;;;;;;5013822;28;20041;-51
2022/06/05 10:45:20;;;;;;;3.55;1.63;;;;;;;;;;5013326;28;20384;-52
2022/06/05 10:48:10;;;;;;;2.17;1.20;;;;;;;;;;5013214;28;20018;-53
2022/06/05 10:50:46;;;;;;;3.17;1.80;;;;;;;;;;5008569;28;20054;-51
2022/06/05 10:53:22;;;;;;;5.35;1.60;;;;;;;;;;5013178;28;20026;-50
2022/06/05 10:56:08;;;;;;;3.65;1.60;;;;;;;;;;5014730;28;20026;-53
2022/06/05 10:58:40;;;;;;;2.95;1.50;;;;;;;;;;5014607;28;20038;-56
2022/06/05 11:01:13;;;;;;;3.72;1.60;;;;;;;;;;5013380;28;20030;-52
2022/06/05 11:03:52;;;;;;;1.95;1.30;;;;;;;;;;5012271;28;20053;-55
2022/06/05 11:06:35;;;;;;;2.40;1.20;;;;;;;;;;5013706;28;20110;-52
2022/06/05 11:09:11;;;;;;;4.35;1.58;;;;;;;;;;5013038;28;20060;-51
2022/06/05 11:14:59;;;;;;;2.70;1.55;;;;;;;;;;5013447;28;20041;-51
2022/06/05 11:17:33;;;;;;;2.45;1.20;;;;;;;;;;5004069;28;20049;-51
2022/06/05 11:20:00;;;;;;;2.90;1.50;;;;;;;;;;5013102;28;20045;-49
2022/06/05 11:22:29;;;;;;;2.45;1.40;;;;;;;;;;5013055;28;20061;-51
2022/06/05 11:25:10;;;;;;;3.90;1.42;;;;;;;;;;5011915;28;20124;-55
2022/06/05 11:27:40;;;;;;;2.72;1.60;;;;;;;;;;5012804;28;20030;-51
2022/06/05 11:30:13;;;;;;;3.50;1.50;;;;;;;;;;5012309;28;20136;-53
2022/06/05 11:32:46;;;;;;;2.78;1.20;;;;;;;;;;5013003;28;20038;-55
2022/06/05 11:35:26;;;;;;;1.92;1.15;;;;;;;;;;5012208;28;20033;-51
2022/06/05 11:38:02;;;;;;;3.15;1.10;;;;;;;;;;5012709;28;20034;-50
2022/06/05 11:40:45;;;;;;;3.75;1.23;;;;;;;;;;5012733;28;20036;-53
2022/06/05 11:43:28;;;;;;;3.40;1.33;;;;;;;;;;5012829;28;20492;-52
2022/06/05 11:45:54;;;;;;;;;;;;;;;;;;5012781;28;20097;-52
2022/06/05 11:48:30;;;;;;;4.70;1.60;;;;;;;;;;5012636;28;19905;-54
2022/06/05 11:51:12;;;;;;;6.00;1.52;;;;;;;;;;5012216;28;20022;-53
2022/06/05 11:53:48;;;;;;;2.90;1.60;;;;;;;;;;5012861;28;20567;-54
2022/06/05 11:56:18;;;;;;;3.65;1.55;;;;;;;;;;5012693;28;20024;-52
2022/06/05 11:58:44;;;;;;;3.60;1.40;;;;;;;;;;5011445;28;20060;-53
2022/06/05 12:01:26;;;;;;;3.35;1.52;;;;;;;;;;5010503;28;20555;-53
2022/06/05 12:04:05;;;;;;;3.10;1.30;;;;;;;;;;5012151;28;20033;-54
2022/06/05 12:06:40;;;;;;;3.10;1.58;;;;;;;;;;5012065;28;20026;-53
2022/06/05 12:09:12;;;;;;;5.05;1.27;;;;;;;;;;5012301;28;20032;-52
2022/06/05 12:11:38;;;;;;;;;;;;;;;;;;5012855;28;20033;-51
2022/06/05 12:14:05;;;;;;;2.92;1.40;;;;;;;;;;5011518;28;20260;-49
2022/06/05 12:16:44;;;;;;;2.75;1.52;;;;;;;;;;5012286;28;20072;-54
2022/06/05 12:19:20;;;;;;;2.10;1.30;;;;;;;;;;5011917;28;20030;-52
2022/06/05 12:22:02;;;;;;;1.90;1.10;;;;;;;;;;5011953;28;20034;-54
2022/06/05 12:24:52;;;;;;;2.38;1.30;;;;;;;;;;5011376;28;20439;-53
2022/06/05 12:27:20;;;;;;;4.13;1.20;;;;;;;;;;5003560;28;20069;-55
2022/06/05 12:29:53;;;;;;;4.45;1.30;;;;;;;;;;5010947;28;20053;-54
2022/06/05 12:32:43;;;;;;;5.60;1.35;;;;;;;;;;5011449;28;20038;-52
2022/06/05 12:35:10;;;;;;;5.50;2.00;;;;;;;;;;4983709;28;20069;-51
2022/06/05 12:37:43;;;;;;;2.38;1.35;;;;;;;;;;5011242;28;20080;-53
2022/06/05 12:40:21;;;;;;;6.13;1.67;;;;;;;;;;5011431;28;20026;-50
2022/06/05 12:42:58;;;;;;;3.38;1.60;;;;;;;;;;5011885;28;20026;-55
2022/06/05 12:45:30;;;;;;;5.63;1.88;;;;;;;;;;5011305;28;20025;-51
2022/06/05 12:48:05;;;;;;;4.55;1.42;;;;;;;;;;5012004;28;20122;-56
2022/06/05 12:50:45;;;;;;;2.28;1.33;;;;;;;;;;5011426;28;20026;-50
2022/06/05 12:53:18;;;;;;;5.70;1.75;;;;;;;;;;5011656;28;20110;-52
2022/06/05 12:55:48;;;;;;;3.72;1.80;;;;;;;;;;5011194;28;20022;-52
2022/06/05 12:58:33;;;;;;;5.22;1.67;;;;;;;;;;5011340;28;20113;-57
2022/06/05 13:01:04;;;;;;;2.67;1.40;;;;;;;;;;5011969;28;20076;-56
2022/06/05 13:03:42;;;;;;;5.20;1.65;;;;;;;;;;5011243;28;20038;-56
2022/06/05 13:06:15;;;;;;;5.18;2.03;;;;;;;;;;5011818;28;20026;-49
2022/06/05 13:08:45;;;;;;;4.68;1.67;;;;;;;;;;5011336;28;20029;-48
2022/06/05 13:11:18;;;;;;;5.07;1.90;;;;;;;;;;5029295;28;20577;-49
2022/06/05 13:13:45;;;;;;;5.68;2.00;;;;;;;;;;5031467;28;20025;-53
2022/06/05 13:16:17;;;;;;;4.00;2.30;;;;;;;;;;5030822;28;20041;-49
2022/06/05 13:18:57;;;;;;;5.70;2.05;;;;;;;;;;5031015;28;20022;-49
2022/06/05 13:21:28;;;;;;;3.90;2.20;;;;;;;;;;5014994;28;20030;-50
2022/06/05 13:24:02;;;;;;;5.03;2.60;;;;;;;;;;5010916;28;20432;-50
2022/06/05 13:26:29;;;;;;;8.95;2.92;;;;;;;;;;5013737;28;20022;-53
2022/06/05 13:29:00;;;;;;;8.80;3.80;;;;;;;;;;5013450;28;20433;-51
2022/06/05 13:31:41;;;;;;;5.57;3.40;;;;;;;;;;5014365;28;20404;-53
2022/06/05 13:34:26;;;;;;;10.18;3.83;;;;;;;;;;5014439;28;20036;-53
2022/06/05 13:37:10;;;;;;;9.85;4.22;;;;;;;;;;5013973;28;20018;-50
2022/06/05 13:39:40;;;;;;;11.43;4.55;;;;;;;;;;5014549;28;20068;-50
2022/06/05 13:42:26;;;;;;;14.13;5.28;;;;;;;;;;5014823;28;20041;-54
2022/06/05 13:44:58;;;;;;;15.07;5.70;;;;;;;;;;5014652;28;20080;-54
2022/06/05 13:47:39;;;;;;;14.05;5.30;;;;;;;;;;5014025;28;20418;-55
2022/06/05 13:50:09;;;;;;;13.45;5.38;;;;;;;;;;5014019;28;20088;-55
2022/06/05 13:52:59;;;;;;;15.52;5.40;;;;;;;;;;5014306;28;20081;-53
2022/06/05 13:55:31;;;;;;;13.57;5.38;;;;;;;;;;5014339;28;20050;-56
2022/06/05 13:58:18;;;;;;;14.57;5.70;;;;;;;;;;5011387;28;20048;-55
2022/06/05 14:00:51;;;;;;;16.40;5.78;;;;;;;;;;5013436;28;20026;-54
2022/06/05 14:03:32;;;;;;;16.67;6.55;;;;;;;;;;5013146;28;20820;-56
2022/06/05 14:06:01;;;;;;;14.63;6.45;;;;;;;;;;5013517;28;20076;-56
2022/06/05 14:08:49;;;;;;;27.95;8.20;;;;;;;;;;5013273;28;20022;-54
2022/06/05 14:11:18;;;;;;;18.95;7.07;;;;;;;;;;5012736;28;20033;-55
2022/06/05 14:13:46;;;;;;;18.83;7.07;;;;;;;;;;5013491;28;20176;-52
2022/06/05 14:16:13;;;;;;;24.52;7.80;;;;;;;;;;5013441;28;20034;-56
2022/06/05 14:18:59;;;;;;;23.48;8.25;;;;;;;;;;5013345;28;20026;-57
2022/06/05 14:21:27;;;;;;;19.52;7.63;;;;;;;;;;5013144;28;20823;-56
2022/06/05 14:23:55;;;;;;;25.80;8.75;;;;;;;;;;5012592;28;20384;-52
2022/06/05 14:26:46;;;;;;;15.57;8.60;;;;;;;;;;5012878;28;20037;-55
2022/06/05 14:29:36;;;;;;;21.08;8.43;;;;;;;;;;5013189;28;20049;-57
2022/06/05 14:32:25;;;;;;;21.50;7.90;;;;;;;;;;5005260;28;20045;-51
2022/06/05 14:35:12;;;;;;;17.48;8.85;;;;;;;;;;5012883;28;20041;-54
2022/06/05 14:37:45;;;;;;;18.30;8.40;;;;;;;;;;4991679;28;20045;-56
2022/06/05 14:40:20;;;;;;;15.35;7.85;;;;;;;;;;4992846;28;20034;-53
2022/06/05 14:43:02;;;;;;;19.35;8.20;;;;;;;;;;4993798;28;20052;-55
2022/06/05 14:45:38;;;;;;;14.82;8.13;;;;;;;;;;4992788;28;20559;-54
2022/06/05 14:48:09;;;;;;;15.80;7.85;;;;;;;;;;4991696;28;20026;-52
2022/06/05 14:50:52;;;;;;;17.27;7.88;;;;;;;;;;4992923;28;20041;-53
2022/06/05 14:53:38;;;;;;;16.20;8.02;;;;;;;;;;4991003;28;20096;-55
2022/06/05 14:59:11;;;;;;;15.52;7.35;;;;;;;;;;5012293;28;20073;-56
2022/06/05 15:01:48;;;;;;;19.80;7.45;;;;;;;;;;5000218;28;20050;-53
2022/06/05 15:04:18;;;;;;;11.75;7.10;;;;;;;;;;5010255;28;20036;-49
2022/06/05 15:06:56;;;;;;;14.73;7.70;;;;;;;;;;5011524;28;20026;-56
2022/06/05 15:09:26;;;;;;;11.63;6.78;;;;;;;;;;5009386;28;20121;-50
2022/06/05 15:11:53;;;;;;;14.25;7.05;;;;;;;;;;5010289;28;20064;-51
2022/06/05 15:14:24;;;;;;;12.90;6.05;;;;;;;;;;5011908;28;20057;-55
2022/06/05 15:17:10;;;;;;;15.50;6.95;;;;;;;;;;5012018;28;20034;-55
2022/06/05 15:19:38;;;;;;;15.35;6.50;;;;;;;;;;5012394;28;20029;-56
2022/06/05 15:22:11;;;;;;;17.30;6.63;;;;;;;;;;5011451;28;20492;-55
2022/06/05 15:24:51;;;;;;;12.65;6.80;;;;;;;;;;5011873;28;20034;-50
2022/06/05 15:27:24;;;;;;;12.60;6.25;;;;;;;;;;5012434;28;20048;-52
2022/06/05 15:30:00;;;;;;;13.07;6.50;;;;;;;;;;5011182;28;20097;-49
2022/06/05 15:32:44;;;;;;;13.02;6.60;;;;;;;;;;5011484;28;20061;-53
2022/06/05 15:35:17;;;;;;;16.92;6.55;;;;;;;;;;5012140;28;20443;-51
2022/06/05 15:37:51;;;;;;;14.10;6.43;;;;;;;;;;5011361;28;20122;-55
2022/06/05 15:40:28;;;;;;;13.93;6.63;;;;;;;;;;5011449;28;20061;-54